createdAt,value
2023-12-22T00:01:26.532Z,8.28
2023-12-22T00:03:53.286Z,7.93
2023-12-22T00:06:20.010Z,7.72
2023-12-22T00:08:46.774Z,7.64
2023-12-22T00:11:13.416Z,7.60
2023-12-22T00:13:40.065Z,8.04
2023-12-22T00:16:06.916Z,7.66
2023-12-22T00:18:33.619Z,7.24
2023-12-22T00:21:00.737Z,6.85
2023-12-22T00:23:27.335Z,6.75
2023-12-22T00:25:54.013Z,6.70
2023-12-22T00:28:20.714Z,6.62
2023-12-22T00:30:47.706Z,6.25
2023-12-22T00:33:14.470Z,6.00
2023-12-22T00:35:41.195Z,5.68
2023-12-22T00:38:07.943Z,5.70
2023-12-22T00:40:34.710Z,5.67
2023-12-22T00:43:01.416Z,5.45
2023-12-22T00:45:28.041Z,5.41
2023-12-22T00:47:54.919Z,5.23
2023-12-22T00:50:21.575Z,5.27
2023-12-22T00:52:48.277Z,5.31
2023-12-22T00:55:15.057Z,5.65
2023-12-22T00:57:41.655Z,5.63
2023-12-22T01:00:11.957Z,5.92
2023-12-22T01:02:39.457Z,5.78
2023-12-22T01:05:06.530Z,5.80
2023-12-22T01:07:33.232Z,5.82
2023-12-22T01:10:04.681Z,5.73
2023-12-22T01:12:31.788Z,5.75
2023-12-22T01:14:58.473Z,5.77
2023-12-22T01:17:25.133Z,5.71
2023-12-22T01:19:52.427Z,5.49
2023-12-22T01:22:19.222Z,5.48
2023-12-22T01:24:46.713Z,5.76
2023-12-22T01:27:13.994Z,6.12
2023-12-22T01:29:40.824Z,6.17
2023-12-22T01:32:07.775Z,6.26
2023-12-22T01:34:34.537Z,6.28
2023-12-22T01:37:01.287Z,6.67
2023-12-22T01:39:27.962Z,7.21
2023-12-22T01:41:54.616Z,7.25
2023-12-22T01:44:21.208Z,7.36
2023-12-22T01:46:48.075Z,7.52
2023-12-22T01:49:16.015Z,7.65
2023-12-22T01:51:44.127Z,7.65
2023-12-22T01:54:11.824Z,7.69
2023-12-22T01:56:38.682Z,7.63
2023-12-22T01:59:05.749Z,7.71
2023-12-22T02:01:33.085Z,7.87
2023-12-22T02:04:00.998Z,7.58
2023-12-22T02:06:27.996Z,7.68
2023-12-22T02:08:55.190Z,7.55
2023-12-22T02:11:21.995Z,7.73
2023-12-22T02:13:48.736Z,8.04
2023-12-22T02:16:34.266Z,7.87
2023-12-22T02:19:09.068Z,8.21
2023-12-22T02:21:35.673Z,7.76
2023-12-22T02:24:02.395Z,7.55
2023-12-22T02:26:38.836Z,7.80
2023-12-22T02:29:06.928Z,7.50
2023-12-22T02:31:38.735Z,7.35
2023-12-22T02:34:14.509Z,7.31
2023-12-22T02:36:42.705Z,7.38
2023-12-22T02:39:11.072Z,7.41
2023-12-22T02:41:37.865Z,7.42
2023-12-22T02:44:04.735Z,7.46
2023-12-22T02:46:31.476Z,7.33
2023-12-22T02:48:58.138Z,7.11
2023-12-22T02:51:24.824Z,6.80
2023-12-22T02:53:51.420Z,6.94
2023-12-22T02:56:18.056Z,6.80
2023-12-22T02:58:44.755Z,6.73
2023-12-22T03:01:11.517Z,6.68
2023-12-22T03:03:38.165Z,6.69
2023-12-22T03:06:05.307Z,6.60
2023-12-22T03:08:32.023Z,6.57
2023-12-22T03:10:58.856Z,6.42
2023-12-22T03:13:25.535Z,6.33
2023-12-22T03:15:52.252Z,6.24
2023-12-22T03:18:19.013Z,6.17
2023-12-22T03:20:45.776Z,6.23
2023-12-22T03:23:12.514Z,6.08
2023-12-22T03:25:39.124Z,6.08
2023-12-22T03:28:05.921Z,6.11
2023-12-22T03:30:32.595Z,6.07
2023-12-22T03:32:59.576Z,6.00
2023-12-22T03:35:26.594Z,5.88
2023-12-22T03:37:53.615Z,5.61
2023-12-22T03:40:20.512Z,5.64
2023-12-22T03:42:47.114Z,6.00
2023-12-22T03:45:13.800Z,5.72
2023-12-22T03:47:40.408Z,5.27
2023-12-22T03:50:08.235Z,5.08
2023-12-22T03:52:34.918Z,5.18
2023-12-22T03:55:01.622Z,5.11
2023-12-22T03:57:28.371Z,4.96
2023-12-22T03:59:54.998Z,4.98
2023-12-22T04:02:21.620Z,4.56
2023-12-22T04:04:48.313Z,4.59
2023-12-22T04:07:14.948Z,4.45
2023-12-22T04:09:41.543Z,4.94
2023-12-22T04:12:08.319Z,5.49
2023-12-22T04:14:35.252Z,5.58
2023-12-22T04:17:01.933Z,5.95
2023-12-22T04:19:28.741Z,5.86
2023-12-22T04:21:55.476Z,5.92
2023-12-22T04:24:22.120Z,5.94
2023-12-22T04:26:48.702Z,5.90
2023-12-22T04:29:15.459Z,5.85
2023-12-22T04:31:42.162Z,5.64
2023-12-22T04:34:08.818Z,5.79
2023-12-22T04:36:36.814Z,5.90
2023-12-22T04:39:03.688Z,5.60
2023-12-22T04:41:30.271Z,6.03
2023-12-22T04:43:56.955Z,6.36
2023-12-22T04:46:23.633Z,6.31
2023-12-22T04:48:50.350Z,6.13
2023-12-22T04:51:16.958Z,6.31
2023-12-22T04:53:43.705Z,6.25
2023-12-22T04:56:10.334Z,6.15
2023-12-22T04:58:37.023Z,6.00
2023-12-22T05:01:03.768Z,5.87
2023-12-22T05:03:30.442Z,5.78
2023-12-22T05:05:57.139Z,5.85
2023-12-22T05:08:23.824Z,5.57
2023-12-22T05:10:50.484Z,5.33
2023-12-22T05:13:17.167Z,5.34
2023-12-22T05:15:43.779Z,5.20
2023-12-22T05:18:10.588Z,5.00
2023-12-22T05:20:37.256Z,4.83
2023-12-22T05:23:04.170Z,4.69
2023-12-22T05:25:30.892Z,4.81
2023-12-22T05:27:58.391Z,4.96
2023-12-22T05:30:24.991Z,4.88
2023-12-22T05:32:51.812Z,4.95
2023-12-22T05:35:18.580Z,5.00
2023-12-22T05:37:45.297Z,5.03
2023-12-22T05:40:13.054Z,4.96
2023-12-22T05:42:39.868Z,4.94
2023-12-22T05:45:07.816Z,5.21
2023-12-22T05:47:34.561Z,5.08
2023-12-22T05:50:01.451Z,5.18
2023-12-22T05:52:28.200Z,5.18
2023-12-22T05:54:55.476Z,5.34
2023-12-22T05:57:22.125Z,5.39
2023-12-22T05:59:48.717Z,5.49
2023-12-22T06:02:15.393Z,5.57
2023-12-22T06:04:42.154Z,5.65
2023-12-22T06:07:08.843Z,5.65
2023-12-22T06:09:35.427Z,5.63
2023-12-22T06:12:02.144Z,5.69
2023-12-22T06:14:28.815Z,5.95
2023-12-22T06:16:57.815Z,5.80
2023-12-22T06:19:26.175Z,5.78
2023-12-22T06:21:52.958Z,5.85
2023-12-22T06:24:19.698Z,5.73
2023-12-22T06:26:46.559Z,5.67
2023-12-22T06:29:13.274Z,5.68
2023-12-22T06:31:40.233Z,5.73
2023-12-22T06:34:06.984Z,6.10
2023-12-22T06:36:33.594Z,5.98
2023-12-22T06:39:00.329Z,5.82
2023-12-22T06:41:31.626Z,5.87
2023-12-22T06:44:02.092Z,5.96
2023-12-22T06:46:30.154Z,5.96
2023-12-22T06:48:57.754Z,5.87
2023-12-22T06:51:27.297Z,5.92
2023-12-22T06:53:55.826Z,6.07
2023-12-22T06:56:26.589Z,5.96
2023-12-22T06:58:55.285Z,5.54
2023-12-22T07:01:27.255Z,6.01
2023-12-22T07:03:54.125Z,6.76
2023-12-22T07:06:22.501Z,6.67
2023-12-22T07:09:17.354Z,6.31
2023-12-22T07:11:51.488Z,6.53
2023-12-22T07:14:18.590Z,6.06
2023-12-22T07:16:45.640Z,6.12
2023-12-22T07:19:14.325Z,5.70
2023-12-22T07:21:43.205Z,5.97
2023-12-22T07:24:10.743Z,5.93
2023-12-22T07:26:37.986Z,5.67
2023-12-22T07:29:04.794Z,5.91
2023-12-22T07:31:31.426Z,5.59
2023-12-22T07:33:58.078Z,5.93
2023-12-22T07:36:24.697Z,5.84
2023-12-22T07:38:51.281Z,5.71
2023-12-22T07:41:19.166Z,5.88
2023-12-22T07:43:46.581Z,5.91
2023-12-22T07:46:21.399Z,5.96
2023-12-22T07:48:48.815Z,5.42
2023-12-22T07:51:16.199Z,5.32
2023-12-22T07:53:43.187Z,5.53
2023-12-22T07:56:12.565Z,5.67
2023-12-22T07:58:39.689Z,5.48
2023-12-22T08:01:09.534Z,5.87
2023-12-22T08:03:36.318Z,5.75
2023-12-22T08:06:03.324Z,5.46
2023-12-22T08:08:30.277Z,5.27
2023-12-22T08:10:56.995Z,5.47
2023-12-22T08:13:23.735Z,5.71
2023-12-22T08:15:50.417Z,5.71
2023-12-22T08:18:17.471Z,5.43
2023-12-22T08:20:45.812Z,5.61
2023-12-22T08:23:14.888Z,5.06
2023-12-22T08:25:45.384Z,5.26
2023-12-22T08:28:13.821Z,5.29
2023-12-22T08:30:40.741Z,5.10
2023-12-22T08:33:07.636Z,5.27
2023-12-22T08:35:34.430Z,5.72
2023-12-22T08:38:01.231Z,5.43
2023-12-22T08:40:28.866Z,5.16
2023-12-22T08:42:56.029Z,5.37
2023-12-22T08:45:22.766Z,5.62
2023-12-22T08:47:49.952Z,6.12
2023-12-22T08:50:16.791Z,5.80
2023-12-22T08:52:43.516Z,5.42
2023-12-22T08:55:10.155Z,5.40
2023-12-22T08:57:36.759Z,5.35
2023-12-22T09:00:04.746Z,5.43
2023-12-22T09:02:31.407Z,5.59
2023-12-22T09:04:58.189Z,5.32
2023-12-22T09:07:25.892Z,5.35
2023-12-22T09:09:52.793Z,5.58
2023-12-22T09:12:19.730Z,5.79
2023-12-22T09:14:46.645Z,5.83
2023-12-22T09:17:13.321Z,5.79
2023-12-22T09:19:40.544Z,5.72
2023-12-22T09:22:07.170Z,6.05
2023-12-22T09:24:33.772Z,6.01
2023-12-22T09:27:03.907Z,5.81
2023-12-22T09:29:32.775Z,6.00
2023-12-22T09:31:59.865Z,6.07
2023-12-22T09:34:29.648Z,5.90
2023-12-22T09:36:57.169Z,5.71
2023-12-22T09:39:23.863Z,5.71
2023-12-22T09:41:51.307Z,5.47
2023-12-22T09:44:21.942Z,5.50
2023-12-22T09:46:53.423Z,5.51
2023-12-22T09:49:21.483Z,5.50
2023-12-22T09:51:50.416Z,5.51
2023-12-22T09:54:18.290Z,5.75
2023-12-22T09:56:46.033Z,5.62
2023-12-22T09:59:15.994Z,5.65
2023-12-22T10:01:47.502Z,5.65
2023-12-22T10:04:15.233Z,5.64
2023-12-22T10:06:48.108Z,5.70
2023-12-22T10:09:17.324Z,5.78
2023-12-22T10:11:45.250Z,5.83
2023-12-22T10:14:13.244Z,5.88
2023-12-22T10:16:40.690Z,5.85
2023-12-22T10:19:08.022Z,5.72
2023-12-22T10:21:35.949Z,5.76
2023-12-22T10:24:03.009Z,5.94
2023-12-22T10:26:29.680Z,6.02
2023-12-22T10:28:56.487Z,6.44
2023-12-22T10:31:23.708Z,6.38
2023-12-22T10:33:50.376Z,6.24
2023-12-22T10:36:18.116Z,7.03
2023-12-22T10:38:45.985Z,6.62
2023-12-22T10:41:12.730Z,6.67
2023-12-22T10:43:40.589Z,6.42
2023-12-22T10:46:12.588Z,6.51
2023-12-22T10:48:41.268Z,6.44
2023-12-22T10:51:12.222Z,6.26
2023-12-22T10:53:42.578Z,6.06
2023-12-22T10:56:09.355Z,6.33
2023-12-22T10:58:36.911Z,6.76
2023-12-22T11:01:04.613Z,6.70
2023-12-22T11:03:35.101Z,6.53
2023-12-22T11:06:07.781Z,6.70
2023-12-22T11:08:37.332Z,6.89
2023-12-22T11:11:15.145Z,6.79
2023-12-22T11:13:44.295Z,6.79
2023-12-22T11:16:11.135Z,6.52
2023-12-22T11:18:38.259Z,6.55
2023-12-22T11:21:08.031Z,6.74
2023-12-22T11:23:36.603Z,6.18
2023-12-22T11:26:05.704Z,6.07
2023-12-22T11:28:34.712Z,6.19
2023-12-22T11:31:02.596Z,6.02
2023-12-22T11:33:30.664Z,5.91
2023-12-22T11:35:59.027Z,6.00
2023-12-22T11:38:25.766Z,5.84
2023-12-22T11:40:54.345Z,5.94
2023-12-22T11:43:22.236Z,5.92
2023-12-22T11:45:52.066Z,5.91
2023-12-22T11:48:19.094Z,6.21
2023-12-22T11:50:45.942Z,6.16
2023-12-22T11:53:24.216Z,6.23
2023-12-22T11:55:59.792Z,6.23
2023-12-22T11:58:36.967Z,6.21
2023-12-22T12:01:06.386Z,6.10
2023-12-22T12:03:33.280Z,5.84
2023-12-22T12:06:16.894Z,5.81
2023-12-22T12:08:44.515Z,5.66
2023-12-22T12:11:11.473Z,5.69
2023-12-22T12:13:43.969Z,5.80
2023-12-22T12:16:15.126Z,5.84
2023-12-22T12:18:42.514Z,5.80
2023-12-22T12:21:11.055Z,5.71
2023-12-22T12:23:38.355Z,5.78
2023-12-22T12:26:07.681Z,5.64
2023-12-22T12:28:36.970Z,5.51
2023-12-22T12:31:06.321Z,5.77
2023-12-22T12:33:33.892Z,5.76
2023-12-22T12:36:02.489Z,5.79
2023-12-22T12:38:49.567Z,5.70
2023-12-22T12:41:16.922Z,5.81
2023-12-22T12:43:44.644Z,5.78
2023-12-22T12:46:12.239Z,5.96
2023-12-22T12:48:39.219Z,5.84
2023-12-22T12:51:07.442Z,5.95
2023-12-22T12:53:34.905Z,6.05
2023-12-22T12:56:02.117Z,6.03
2023-12-22T12:58:33.495Z,6.04
2023-12-22T13:01:20.556Z,5.85
2023-12-22T13:03:56.042Z,5.81
2023-12-22T13:06:23.556Z,5.98
2023-12-22T13:08:53.952Z,5.87
2023-12-22T13:11:26.464Z,5.82
2023-12-22T13:13:53.685Z,5.55
2023-12-22T13:16:30.367Z,5.58
2023-12-22T13:19:01.609Z,5.62
2023-12-22T13:21:33.812Z,5.61
2023-12-22T13:24:14.243Z,5.67
2023-12-22T13:26:41.836Z,5.60
2023-12-22T13:29:09.824Z,5.76
2023-12-22T13:31:41.770Z,5.74
2023-12-22T13:34:12.260Z,5.74
2023-12-22T13:36:39.555Z,6.02
2023-12-22T13:39:07.671Z,5.73
2023-12-22T13:41:38.210Z,5.67
2023-12-22T13:44:06.719Z,5.78
2023-12-22T13:46:36.229Z,5.84
2023-12-22T13:49:03.821Z,5.93
2023-12-22T13:51:48.864Z,5.71
2023-12-22T13:54:15.695Z,5.42
2023-12-22T13:56:43.142Z,5.69
2023-12-22T13:59:10.019Z,5.51
2023-12-22T14:01:37.111Z,5.46
2023-12-22T14:04:04.016Z,5.49
2023-12-22T14:06:31.134Z,5.46
2023-12-22T14:08:58.195Z,5.47
2023-12-22T14:11:24.811Z,5.71
2023-12-22T14:13:51.440Z,5.51
2023-12-22T14:16:18.330Z,5.46
2023-12-22T14:18:46.365Z,5.45
2023-12-22T14:21:13.050Z,5.70
2023-12-22T14:23:39.741Z,5.87
2023-12-22T14:26:07.032Z,5.53
2023-12-22T14:28:33.964Z,5.56
2023-12-22T14:31:00.880Z,5.56
2023-12-22T14:33:27.703Z,5.58
2023-12-22T14:35:54.945Z,5.48
2023-12-22T14:38:21.701Z,5.46
2023-12-22T14:40:48.451Z,5.19
2023-12-22T14:43:15.192Z,5.30
2023-12-22T14:45:42.008Z,5.36
2023-12-22T14:48:08.771Z,5.30
2023-12-22T14:50:35.488Z,5.18
2023-12-22T14:53:02.117Z,5.36
2023-12-22T14:55:29.948Z,5.05
2023-12-22T14:57:56.549Z,5.16
2023-12-22T15:00:23.204Z,4.99
2023-12-22T15:02:50.146Z,4.98
2023-12-22T15:05:17.112Z,4.76
2023-12-22T15:07:43.986Z,4.78
2023-12-22T15:10:11.595Z,4.87
2023-12-22T15:12:39.227Z,4.79
2023-12-22T15:15:06.656Z,5.09
2023-12-22T15:17:35.567Z,5.18
2023-12-22T15:20:05.949Z,5.14
2023-12-22T15:22:33.677Z,5.31
2023-12-22T15:25:00.405Z,5.25
2023-12-22T15:27:28.124Z,5.10
2023-12-22T15:29:54.836Z,5.41
2023-12-22T15:32:21.747Z,5.43
2023-12-22T15:34:48.495Z,5.42
2023-12-22T15:37:15.214Z,5.39
2023-12-22T15:39:41.862Z,5.42
2023-12-22T15:42:08.638Z,5.24
2023-12-22T15:44:40.224Z,5.33
2023-12-22T15:47:07.260Z,5.38
2023-12-22T15:49:35.989Z,5.30
2023-12-22T15:52:02.861Z,5.55
2023-12-22T15:54:29.559Z,5.34
2023-12-22T15:56:57.260Z,5.36
2023-12-22T15:59:27.046Z,5.47
2023-12-22T16:01:53.819Z,5.40
2023-12-22T16:04:20.520Z,5.61
2023-12-22T16:06:47.184Z,5.53
2023-12-22T16:09:14.779Z,5.39
2023-12-22T16:11:41.613Z,5.28
2023-12-22T16:14:08.476Z,5.18
2023-12-22T16:16:35.309Z,5.20
2023-12-22T16:19:02.235Z,5.17
2023-12-22T16:21:29.009Z,5.76
2023-12-22T16:23:55.712Z,5.33
2023-12-22T16:26:22.703Z,5.30
2023-12-22T16:28:49.795Z,5.15
2023-12-22T16:31:16.501Z,5.18
2023-12-22T16:33:43.892Z,5.18
2023-12-22T16:36:11.790Z,5.25
2023-12-22T16:38:39.122Z,5.30
2023-12-22T16:41:07.405Z,5.33
2023-12-22T16:43:35.726Z,5.25
2023-12-22T16:46:02.700Z,5.08
2023-12-22T16:48:29.531Z,4.99
2023-12-22T16:51:01.381Z,5.08
2023-12-22T16:53:29.261Z,5.08
2023-12-22T16:55:55.945Z,5.45
2023-12-22T16:58:22.732Z,5.39
2023-12-22T17:01:08.329Z,5.28
2023-12-22T17:03:38.027Z,5.15
2023-12-22T17:06:05.751Z,5.14
2023-12-22T17:08:34.601Z,5.25
2023-12-22T17:11:01.932Z,5.23
2023-12-22T17:13:28.721Z,5.04
2023-12-22T17:15:55.684Z,5.02
2023-12-22T17:18:22.620Z,5.20
2023-12-22T17:20:58.972Z,5.20
2023-12-22T17:23:29.097Z,5.42
2023-12-22T17:25:57.166Z,5.27
2023-12-22T17:28:24.380Z,6.98
2023-12-22T17:30:51.969Z,5.83
2023-12-22T17:33:19.052Z,5.38
2023-12-22T17:35:45.975Z,5.24
2023-12-22T17:38:12.797Z,5.20
2023-12-22T17:40:39.588Z,5.13
2023-12-22T17:43:07.517Z,5.14
2023-12-22T17:45:34.173Z,5.06
2023-12-22T17:48:00.869Z,4.99
2023-12-22T17:50:27.540Z,5.27
2023-12-22T17:52:54.205Z,6.21
2023-12-22T17:55:20.860Z,5.48
2023-12-22T17:57:47.687Z,5.25
2023-12-22T18:00:15.370Z,4.94
2023-12-22T18:02:41.995Z,5.84
2023-12-22T18:05:08.846Z,6.29
2023-12-22T18:07:35.554Z,5.46
2023-12-22T18:10:02.207Z,5.25
2023-12-22T18:12:28.830Z,5.00
2023-12-22T18:14:55.538Z,5.39
2023-12-22T18:17:22.189Z,5.16
2023-12-22T18:19:48.826Z,5.20
2023-12-22T18:22:15.443Z,6.02
2023-12-22T18:24:42.048Z,5.69
2023-12-22T18:27:09.542Z,5.84
2023-12-22T18:29:37.657Z,5.61
2023-12-22T18:32:05.781Z,5.60
2023-12-22T18:34:32.634Z,5.63
2023-12-22T18:36:59.555Z,5.97
2023-12-22T18:39:26.194Z,5.55
2023-12-22T18:41:52.813Z,5.37
2023-12-22T18:44:19.472Z,5.73
2023-12-22T18:46:46.181Z,5.88
2023-12-22T18:49:14.868Z,6.20
2023-12-22T18:51:41.839Z,6.06
2023-12-22T18:54:10.104Z,5.88
2023-12-22T18:56:37.066Z,6.31
2023-12-22T18:59:04.065Z,5.79
2023-12-22T19:01:40.378Z,5.79
2023-12-22T19:04:15.231Z,6.81
2023-12-22T19:06:42.101Z,6.06
2023-12-22T19:09:10.716Z,5.86
2023-12-22T19:11:37.482Z,5.67
2023-12-22T19:14:04.303Z,5.78
2023-12-22T19:16:31.337Z,5.65
2023-12-22T19:18:58.054Z,5.58
2023-12-22T19:21:24.728Z,5.55
2023-12-22T19:23:51.341Z,5.39
2023-12-22T19:26:18.640Z,5.42
2023-12-22T19:28:45.395Z,5.78
2023-12-22T19:31:12.110Z,5.59
2023-12-22T19:33:41.154Z,5.55
2023-12-22T19:36:08.460Z,5.36
2023-12-22T19:38:35.316Z,5.18
2023-12-22T19:41:02.200Z,4.99
2023-12-22T19:43:29.164Z,5.03
2023-12-22T19:45:55.932Z,5.03
2023-12-22T19:48:22.718Z,5.89
2023-12-22T19:50:50.126Z,5.45
2023-12-22T19:53:17.511Z,5.10
2023-12-22T19:55:44.436Z,5.01
2023-12-22T19:58:11.047Z,5.90
2023-12-22T20:00:37.695Z,5.23
2023-12-22T20:03:04.507Z,5.08
2023-12-22T20:05:31.398Z,4.94
2023-12-22T20:07:58.205Z,4.84
2023-12-22T20:10:24.884Z,5.01
2023-12-22T20:12:51.638Z,5.00
2023-12-22T20:15:19.846Z,5.11
2023-12-22T20:17:47.205Z,5.13
2023-12-22T20:20:14.879Z,5.26
2023-12-22T20:22:41.863Z,5.41
2023-12-22T20:25:11.585Z,5.49
2023-12-22T20:27:38.617Z,5.46
2023-12-22T20:30:06.498Z,5.39
2023-12-22T20:32:33.232Z,5.43
2023-12-22T20:35:02.565Z,5.42
2023-12-22T20:37:29.304Z,5.33
2023-12-22T20:39:55.983Z,5.29
2023-12-22T20:42:22.720Z,5.26
2023-12-22T20:44:50.029Z,5.33
2023-12-22T20:47:16.719Z,5.25
2023-12-22T20:49:43.809Z,5.14
2023-12-22T20:52:10.439Z,5.09
2023-12-22T20:54:37.249Z,5.14
2023-12-22T20:57:08.253Z,4.88
2023-12-22T20:59:36.446Z,4.61
2023-12-22T21:02:03.212Z,4.78
2023-12-22T21:04:30.534Z,4.95
2023-12-22T21:06:57.699Z,5.16
2023-12-22T21:09:24.676Z,5.09
2023-12-22T21:11:51.335Z,4.92
2023-12-22T21:14:18.367Z,4.85
2023-12-22T21:16:46.038Z,4.98
2023-12-22T21:19:13.605Z,4.92
2023-12-22T21:21:44.548Z,4.97
2023-12-22T21:24:11.732Z,5.00
2023-12-22T21:26:38.439Z,4.92
2023-12-22T21:29:05.430Z,4.95
2023-12-22T21:31:32.651Z,4.89
2023-12-22T21:33:59.719Z,4.76
2023-12-22T21:36:26.681Z,4.91
2023-12-22T21:38:54.185Z,5.40
2023-12-22T21:41:22.736Z,4.78
2023-12-22T21:43:49.643Z,4.66
2023-12-22T21:46:16.378Z,4.75
2023-12-22T21:48:43.148Z,4.16
2023-12-22T21:51:10.230Z,4.37
2023-12-22T21:53:37.132Z,4.31
2023-12-22T21:56:04.395Z,4.36
2023-12-22T21:58:31.409Z,4.56
2023-12-22T22:00:58.281Z,4.26
2023-12-22T22:03:26.313Z,4.33
2023-12-22T22:05:53.233Z,4.22
2023-12-22T22:08:19.956Z,4.47
2023-12-22T22:10:46.815Z,4.19
2023-12-22T22:13:13.473Z,4.01
2023-12-22T22:15:40.094Z,3.81
2023-12-22T22:18:09.368Z,3.99
2023-12-22T22:20:37.079Z,3.85
2023-12-22T22:23:04.041Z,3.78
2023-12-22T22:25:31.025Z,3.70
2023-12-22T22:27:57.615Z,3.53
2023-12-22T22:30:24.535Z,3.49
2023-12-22T22:32:51.364Z,3.48
2023-12-22T22:35:18.023Z,3.74
2023-12-22T22:37:44.681Z,3.51
2023-12-22T22:40:11.728Z,4.00
2023-12-22T22:42:38.412Z,3.90
2023-12-22T22:45:05.443Z,3.74
2023-12-22T22:47:33.969Z,3.90
2023-12-22T22:50:00.889Z,4.47
2023-12-22T22:52:27.646Z,4.58
2023-12-22T22:54:55.164Z,4.24
2023-12-22T22:57:23.175Z,4.55
2023-12-22T22:59:50.248Z,4.59
2023-12-22T23:02:17.392Z,3.99
2023-12-22T23:04:44.046Z,3.84
2023-12-22T23:07:12.788Z,3.91
2023-12-22T23:09:39.479Z,4.04
2023-12-22T23:12:06.590Z,3.93
2023-12-22T23:14:33.217Z,3.79
2023-12-22T23:16:59.871Z,3.69
2023-12-22T23:19:26.544Z,4.05
2023-12-22T23:21:53.170Z,3.74
2023-12-22T23:24:19.827Z,3.49
2023-12-22T23:26:46.509Z,4.48
2023-12-22T23:29:13.197Z,3.78
2023-12-22T23:31:39.879Z,3.84
2023-12-22T23:34:06.541Z,3.70
2023-12-22T23:36:33.199Z,3.74
2023-12-22T23:38:59.857Z,4.80
2023-12-22T23:41:26.441Z,5.44
2023-12-22T23:43:53.147Z,5.84
2023-12-22T23:46:19.769Z,7.39
2023-12-22T23:48:46.529Z,7.45
2023-12-22T23:51:15.633Z,7.53
2023-12-22T23:53:42.377Z,7.97
2023-12-22T23:56:09.069Z,7.95
2023-12-22T23:58:35.951Z,8.27
